createdAt,value
2023-03-10T00:01:25.487Z,10.48
2023-03-10T00:03:53.637Z,11.25
2023-03-10T00:06:22.645Z,9.88
2023-03-10T00:08:50.370Z,10.10
2023-03-10T00:11:18.240Z,10.15
2023-03-10T00:13:45.832Z,10.35
2023-03-10T00:16:17.282Z,11.10
2023-03-10T00:21:16.609Z,9.70
2023-03-10T00:23:44.170Z,9.55
2023-03-10T00:26:13.145Z,10.05
2023-03-10T00:28:40.705Z,9.30
2023-03-10T00:31:09.873Z,9.02
2023-03-10T00:33:37.552Z,9.27
2023-03-10T00:36:06.641Z,8.95
2023-03-10T00:38:36.113Z,8.73
2023-03-10T00:41:04.680Z,9.23
2023-03-10T00:43:32.350Z,9.10
2023-03-10T00:45:59.872Z,9.13
2023-03-10T00:48:27.527Z,9.27
2023-03-10T00:50:55.241Z,9.68
2023-03-10T00:53:22.781Z,9.68
2023-03-10T00:56:01.612Z,8.93
2023-03-10T00:58:29.449Z,9.65
2023-03-10T01:00:57.018Z,9.82
2023-03-10T01:03:25.020Z,8.75
2023-03-10T01:05:52.928Z,9.07
2023-03-10T01:08:20.613Z,10.38
2023-03-10T01:10:48.299Z,9.98
2023-03-10T01:13:18.172Z,9.75
2023-03-10T01:15:47.756Z,10.10
2023-03-10T01:18:16.109Z,9.77
2023-03-10T01:20:43.975Z,9.18
2023-03-10T01:23:14.576Z,8.68
2023-03-10T01:25:42.205Z,8.90
2023-03-10T01:28:09.671Z,9.70
2023-03-10T01:30:38.801Z,9.52
2023-03-10T01:33:06.797Z,10.07
2023-03-10T01:35:34.467Z,9.68
2023-03-10T01:38:01.970Z,9.75
2023-03-10T01:40:29.797Z,9.98
2023-03-10T01:43:12.128Z,9.15
2023-03-10T01:45:58.324Z,9.50
2023-03-10T01:48:27.230Z,9.30
2023-03-10T01:50:56.564Z,9.82
2023-03-10T01:53:25.804Z,9.20
2023-03-10T01:55:54.522Z,8.77
2023-03-10T01:58:24.074Z,8.60
2023-03-10T02:00:53.313Z,8.80
2023-03-10T02:03:22.711Z,8.93
2023-03-10T02:05:54.574Z,8.95
2023-03-10T02:08:23.103Z,6.80
2023-03-10T02:10:51.827Z,7.78
2023-03-10T02:13:19.363Z,7.75
2023-03-10T02:15:47.021Z,7.93
2023-03-10T02:18:15.541Z,7.72
2023-03-10T02:20:45.584Z,8.25
2023-03-10T02:23:16.658Z,8.32
2023-03-10T02:25:46.678Z,8.05
2023-03-10T02:28:15.652Z,7.65
2023-03-10T02:30:44.645Z,7.78
2023-03-10T02:33:14.137Z,8.27
2023-03-10T02:35:41.724Z,9.27
2023-03-10T02:38:09.292Z,9.15
2023-03-10T02:40:37.978Z,8.82
2023-03-10T02:43:08.678Z,8.38
2023-03-10T02:45:38.801Z,8.10
2023-03-10T02:48:06.475Z,8.35
2023-03-10T02:50:36.246Z,8.38
2023-03-10T02:53:07.021Z,8.23
2023-03-10T02:55:34.592Z,8.20
2023-03-10T02:58:02.569Z,7.90
2023-03-10T03:00:30.592Z,7.63
2023-03-10T03:02:59.444Z,8.18
2023-03-10T03:05:26.918Z,7.88
2023-03-10T03:07:54.429Z,8.57
2023-03-10T03:10:21.984Z,8.05
2023-03-10T03:12:50.541Z,7.70
2023-03-10T03:15:18.242Z,8.65
2023-03-10T03:17:45.810Z,8.50
2023-03-10T03:20:15.030Z,8.07
2023-03-10T03:22:42.897Z,7.90
2023-03-10T03:25:11.078Z,7.88
2023-03-10T03:27:38.722Z,7.80
2023-03-10T03:30:07.851Z,7.28
2023-03-10T03:32:35.847Z,7.53
2023-03-10T03:35:03.942Z,7.22
2023-03-10T03:37:33.092Z,7.43
2023-03-10T03:40:00.674Z,7.35
2023-03-10T03:42:28.273Z,7.10
2023-03-10T03:44:55.756Z,7.43
2023-03-10T03:47:23.257Z,7.50
2023-03-10T03:49:50.718Z,7.68
2023-03-10T03:52:19.473Z,8.13
2023-03-10T03:54:48.372Z,7.55
2023-03-10T03:57:15.860Z,7.47
2023-03-10T03:59:43.374Z,6.85
2023-03-10T04:02:10.950Z,7.72
2023-03-10T04:04:38.656Z,6.60
2023-03-10T04:07:06.193Z,7.20
2023-03-10T04:09:33.767Z,6.63
2023-03-10T04:12:02.689Z,6.53
2023-03-10T04:14:30.211Z,6.60
2023-03-10T04:16:57.747Z,7.03
2023-03-10T04:19:25.394Z,6.93
2023-03-10T04:21:53.209Z,6.75
2023-03-10T04:24:20.712Z,6.72
2023-03-10T04:26:48.261Z,6.90
2023-03-10T04:29:17.176Z,6.68
2023-03-10T04:31:50.547Z,7.22
2023-03-10T04:34:26.561Z,6.63
2023-03-10T04:36:54.068Z,6.40
2023-03-10T04:39:21.559Z,6.82
2023-03-10T04:41:49.064Z,7.57
2023-03-10T04:44:30.401Z,6.28
2023-03-10T04:46:59.006Z,6.13
2023-03-10T04:49:26.695Z,7.38
2023-03-10T04:51:54.172Z,6.35
2023-03-10T04:54:21.687Z,6.55
2023-03-10T04:56:49.207Z,6.80
2023-03-10T04:59:20.087Z,6.72
2023-03-10T05:01:47.825Z,7.03
2023-03-10T05:04:15.459Z,6.10
2023-03-10T05:06:42.965Z,6.15
2023-03-10T05:09:10.453Z,6.50
2023-03-10T05:11:37.949Z,6.53
2023-03-10T05:14:05.425Z,5.75
2023-03-10T05:16:34.305Z,5.68
2023-03-10T05:19:01.942Z,6.90
2023-03-10T05:21:29.498Z,7.03
2023-03-10T05:23:57.061Z,6.68
2023-03-10T05:26:24.572Z,6.55
2023-03-10T05:28:52.029Z,5.93
2023-03-10T05:31:26.649Z,6.50
2023-03-10T05:33:56.088Z,5.97
2023-03-10T05:36:23.667Z,5.53
2023-03-10T05:38:51.295Z,6.03
2023-03-10T05:41:18.791Z,5.82
2023-03-10T05:43:46.292Z,5.82
2023-03-10T05:46:13.850Z,5.97
2023-03-10T05:48:41.328Z,5.80
2023-03-10T05:51:11.285Z,5.68
2023-03-10T05:53:38.977Z,6.05
2023-03-10T05:56:07.236Z,5.35
2023-03-10T05:58:34.692Z,6.10
2023-03-10T06:01:02.168Z,6.15
2023-03-10T06:03:30.090Z,6.07
2023-03-10T06:05:57.833Z,5.65
2023-03-10T06:08:28.031Z,5.32
2023-03-10T06:10:55.759Z,5.47
2023-03-10T06:13:23.303Z,5.57
2023-03-10T06:15:51.680Z,5.32
2023-03-10T06:18:19.294Z,5.60
2023-03-10T06:20:47.877Z,5.45
2023-03-10T06:23:15.675Z,5.45
2023-03-10T06:25:44.540Z,5.32
2023-03-10T06:28:12.273Z,5.85
2023-03-10T06:30:39.826Z,5.88
2023-03-10T06:33:07.338Z,6.20
2023-03-10T06:35:34.919Z,10.38
2023-03-10T06:38:02.456Z,6.53
2023-03-10T06:40:29.902Z,6.55
2023-03-10T06:42:58.736Z,5.95
2023-03-10T06:45:26.210Z,5.63
2023-03-10T06:47:53.711Z,5.70
2023-03-10T06:50:21.345Z,6.05
2023-03-10T06:52:48.802Z,6.95
2023-03-10T06:55:16.964Z,7.68
2023-03-10T06:57:44.452Z,7.28
2023-03-10T07:00:15.754Z,6.60
2023-03-10T07:05:11.925Z,4.82
2023-03-10T07:07:39.484Z,5.72
2023-03-10T07:10:08.374Z,6.10
2023-03-10T07:12:35.961Z,5.75
2023-03-10T07:15:03.470Z,6.10
2023-03-10T07:17:32.303Z,5.78
2023-03-10T07:19:59.799Z,6.18
2023-03-10T07:22:27.249Z,5.00
2023-03-10T07:24:55.143Z,6.22
2023-03-10T07:27:22.651Z,6.15
2023-03-10T07:29:50.202Z,5.80
2023-03-10T07:32:17.808Z,6.55
2023-03-10T07:34:46.686Z,5.60
2023-03-10T07:37:14.176Z,6.10
2023-03-10T07:39:41.665Z,5.78
2023-03-10T07:42:09.230Z,6.20
2023-03-10T07:44:36.794Z,6.03
2023-03-10T07:47:04.331Z,6.60
2023-03-10T07:49:31.886Z,5.53
2023-03-10T07:52:00.761Z,6.03
2023-03-10T07:54:28.500Z,6.35
2023-03-10T07:56:56.005Z,6.35
2023-03-10T07:59:23.649Z,5.55
2023-03-10T08:01:51.213Z,5.53
2023-03-10T08:04:18.846Z,6.45
2023-03-10T08:06:47.312Z,5.50
2023-03-10T08:09:16.182Z,5.70
2023-03-10T08:11:43.713Z,5.50
2023-03-10T08:14:11.223Z,6.45
2023-03-10T08:16:39.253Z,5.57
2023-03-10T08:19:07.590Z,5.97
2023-03-10T08:21:35.116Z,5.35
2023-03-10T08:24:02.686Z,5.50
2023-03-10T08:26:31.624Z,4.88
2023-03-10T08:28:59.172Z,5.13
2023-03-10T08:31:26.750Z,5.00
2023-03-10T08:33:55.921Z,5.90
2023-03-10T08:36:24.277Z,5.50
2023-03-10T08:38:52.669Z,5.47
2023-03-10T08:41:21.250Z,5.63
2023-03-10T08:43:51.028Z,4.80
2023-03-10T08:46:19.030Z,5.65
2023-03-10T08:48:46.717Z,5.20
2023-03-10T08:51:16.085Z,4.47
2023-03-10T08:53:44.573Z,4.78
2023-03-10T08:56:12.166Z,4.90
2023-03-10T08:58:39.658Z,5.13
2023-03-10T09:01:08.791Z,4.70
2023-03-10T09:03:36.830Z,4.72
2023-03-10T09:06:04.720Z,4.95
2023-03-10T09:08:32.213Z,4.88
2023-03-10T09:10:59.790Z,5.22
2023-03-10T09:13:27.348Z,4.78
2023-03-10T09:15:54.927Z,5.22
2023-03-10T09:18:23.744Z,4.97
2023-03-10T09:20:51.744Z,4.68
2023-03-10T09:23:19.453Z,5.28
2023-03-10T09:25:47.372Z,4.53
2023-03-10T09:28:17.410Z,4.97
2023-03-10T09:30:46.084Z,4.45
2023-03-10T09:33:15.895Z,4.68
2023-03-10T09:35:52.589Z,4.82
2023-03-10T09:38:25.411Z,4.60
2023-03-10T09:40:55.794Z,4.63
2023-03-10T09:43:24.229Z,4.70
2023-03-10T09:45:55.681Z,4.35
2023-03-10T09:48:33.601Z,4.63
2023-03-10T09:51:05.804Z,4.82
2023-03-10T09:53:41.680Z,4.22
2023-03-10T09:56:12.541Z,4.28
2023-03-10T09:58:41.989Z,4.18
2023-03-10T10:01:15.894Z,4.70
2023-03-10T10:03:52.707Z,5.70
2023-03-10T10:06:27.644Z,4.07
2023-03-10T10:09:04.119Z,4.15
2023-03-10T10:11:33.341Z,3.97
2023-03-10T10:14:15.900Z,3.03
2023-03-10T10:16:49.153Z,3.15
2023-03-10T10:19:20.949Z,2.70
2023-03-10T10:21:52.489Z,1.70
2023-03-10T10:24:21.120Z,2.97
2023-03-10T10:26:48.618Z,3.38
2023-03-10T10:29:16.994Z,5.10
2023-03-10T10:32:02.449Z,4.18
2023-03-10T10:34:31.960Z,5.03
2023-03-10T10:37:01.331Z,4.55
2023-03-10T10:39:31.321Z,4.53
2023-03-10T10:42:13.261Z,5.10
2023-03-10T10:44:41.423Z,5.90
2023-03-10T10:47:19.685Z,4.88
2023-03-10T10:49:47.164Z,5.95
2023-03-10T10:52:21.761Z,5.63
2023-03-10T10:54:54.404Z,5.30
2023-03-10T10:57:23.744Z,5.80
2023-03-10T10:59:51.217Z,6.13
2023-03-10T11:02:23.718Z,6.90
2023-03-10T11:04:51.387Z,6.20
2023-03-10T11:07:21.703Z,6.85
2023-03-10T11:09:49.250Z,6.63
2023-03-10T11:12:20.256Z,6.25
2023-03-10T11:14:53.136Z,6.68
2023-03-10T11:17:24.121Z,5.80
2023-03-10T11:20:02.217Z,6.53
2023-03-10T11:22:36.419Z,6.90
2023-03-10T11:25:09.833Z,6.95
2023-03-10T11:27:44.494Z,6.07
2023-03-10T11:30:16.037Z,5.30
2023-03-10T11:32:47.931Z,5.22
2023-03-10T11:35:19.566Z,4.82
2023-03-10T11:37:51.850Z,4.53
2023-03-10T11:40:23.566Z,4.20
2023-03-10T11:42:54.419Z,4.22
2023-03-10T11:45:25.528Z,4.22
2023-03-10T11:50:24.602Z,4.32
2023-03-10T11:52:55.417Z,4.35
2023-03-10T11:55:23.089Z,5.25
2023-03-10T11:57:53.760Z,5.55
2023-03-10T12:00:26.076Z,7.15
2023-03-10T12:03:02.596Z,8.75
2023-03-10T12:05:32.733Z,8.65
2023-03-10T12:08:04.637Z,8.80
2023-03-10T12:10:32.192Z,8.75
2023-03-10T12:13:00.763Z,9.65
2023-03-10T12:15:30.376Z,9.10
2023-03-10T12:17:58.085Z,9.45
2023-03-10T12:20:27.373Z,9.05
2023-03-10T12:22:55.914Z,7.75
2023-03-10T12:25:41.787Z,8.38
2023-03-10T12:28:19.629Z,9.18
2023-03-10T12:30:47.939Z,10.07
2023-03-10T12:33:34.175Z,9.32
2023-03-10T12:36:03.589Z,8.80
2023-03-10T12:38:41.836Z,7.63
2023-03-10T12:41:09.676Z,5.50
2023-03-10T12:44:04.547Z,5.30
2023-03-10T12:46:43.466Z,4.53
2023-03-10T12:49:21.246Z,5.00
2023-03-10T12:51:50.941Z,5.20
2023-03-10T12:54:33.945Z,4.88
2023-03-10T12:57:05.608Z,4.85
2023-03-10T12:59:36.653Z,4.50
2023-03-10T13:02:15.928Z,4.32
2023-03-10T13:04:43.665Z,3.85
2023-03-10T13:07:15.704Z,3.38
2023-03-10T13:09:43.624Z,3.00
2023-03-10T13:12:15.925Z,3.17
2023-03-10T13:14:44.660Z,2.80
2023-03-10T13:17:22.266Z,2.80
2023-03-10T13:19:57.888Z,2.60
2023-03-10T13:22:25.438Z,2.55
2023-03-10T13:24:57.954Z,2.40
2023-03-10T13:27:28.799Z,2.42
2023-03-10T13:29:56.863Z,2.53
2023-03-10T13:32:26.137Z,3.20
2023-03-10T13:34:53.719Z,3.13
2023-03-10T13:37:21.374Z,3.45
2023-03-10T13:39:48.893Z,4.10
2023-03-10T13:42:24.082Z,4.95
2023-03-10T13:44:54.296Z,4.65
2023-03-10T13:47:22.713Z,4.63
2023-03-10T13:49:52.698Z,4.57
2023-03-10T13:52:24.556Z,4.47
2023-03-10T13:54:52.132Z,4.10
2023-03-10T13:57:31.718Z,3.92
2023-03-10T13:59:59.574Z,4.03
2023-03-10T14:02:29.093Z,4.30
2023-03-10T14:04:58.505Z,3.40
2023-03-10T14:07:27.452Z,3.72
2023-03-10T14:10:15.283Z,2.85
2023-03-10T14:12:43.751Z,3.38
2023-03-10T14:15:12.154Z,3.03
2023-03-10T14:17:41.409Z,3.97
2023-03-10T14:20:13.349Z,3.70
2023-03-10T14:22:43.213Z,4.22
2023-03-10T14:25:15.231Z,4.38
2023-03-10T14:27:43.450Z,4.43
2023-03-10T14:30:23.117Z,3.58
2023-03-10T14:32:50.814Z,3.28
2023-03-10T14:35:21.195Z,3.42
2023-03-10T14:37:49.006Z,3.40
2023-03-10T14:40:16.917Z,2.97
2023-03-10T14:42:45.080Z,2.97
2023-03-10T14:45:19.957Z,3.72
2023-03-10T14:47:47.643Z,4.10
2023-03-10T14:50:15.584Z,3.92
2023-03-10T14:52:44.450Z,4.00
2023-03-10T14:55:12.286Z,4.05
2023-03-10T14:57:40.312Z,3.83
2023-03-10T15:00:11.957Z,3.80
2023-03-10T15:02:39.524Z,3.60
2023-03-10T15:05:07.500Z,4.40
2023-03-10T15:07:35.005Z,3.95
2023-03-10T15:10:11.890Z,3.72
2023-03-10T15:12:39.560Z,5.40
2023-03-10T15:15:08.705Z,4.22
2023-03-10T15:17:36.148Z,4.25
2023-03-10T15:20:08.279Z,3.45
2023-03-10T15:22:35.794Z,3.95
2023-03-10T15:25:04.948Z,4.50
2023-03-10T15:27:32.441Z,3.85
2023-03-10T15:29:59.970Z,3.50
2023-03-10T15:32:27.521Z,3.85
2023-03-10T15:34:55.072Z,3.97
2023-03-10T15:37:22.559Z,4.28
2023-03-10T15:39:50.094Z,3.92
2023-03-10T15:42:19.085Z,4.38
2023-03-10T15:44:48.646Z,4.47
2023-03-10T15:47:16.138Z,4.78
2023-03-10T15:49:43.686Z,4.20
2023-03-10T15:52:11.249Z,4.25
2023-03-10T15:54:38.782Z,4.22
2023-03-10T15:57:07.934Z,5.10
2023-03-10T15:59:39.156Z,4.07
2023-03-10T16:02:06.813Z,4.53
2023-03-10T16:04:34.365Z,4.55
2023-03-10T16:07:03.255Z,4.70
2023-03-10T16:09:30.801Z,4.97
2023-03-10T16:11:58.732Z,4.57
2023-03-10T16:14:26.281Z,5.10
2023-03-10T16:16:55.100Z,5.10
2023-03-10T16:19:23.258Z,5.65
2023-03-10T16:21:52.470Z,5.47
2023-03-10T16:24:20.022Z,5.82
2023-03-10T16:26:47.574Z,6.15
2023-03-10T16:29:15.544Z,5.60
2023-03-10T16:31:43.870Z,6.47
2023-03-10T16:34:12.834Z,5.70
2023-03-10T16:36:40.534Z,6.22
2023-03-10T16:39:09.052Z,6.10
2023-03-10T16:41:36.695Z,5.90
2023-03-10T16:44:04.912Z,5.93
2023-03-10T16:46:32.480Z,5.82
2023-03-10T16:49:00.775Z,5.93
2023-03-10T16:51:30.341Z,7.03
2023-03-10T16:53:58.729Z,6.47
2023-03-10T16:56:26.727Z,6.50
2023-03-10T16:58:54.399Z,7.05
2023-03-10T17:01:23.959Z,6.75
2023-03-10T17:03:51.789Z,7.47
2023-03-10T17:06:22.547Z,7.13
2023-03-10T17:08:51.491Z,7.30
2023-03-10T17:11:19.817Z,7.55
2023-03-10T17:13:47.527Z,7.95
2023-03-10T17:16:15.641Z,8.27
2023-03-10T17:18:43.216Z,8.88
2023-03-10T17:21:11.638Z,10.52
2023-03-10T17:23:39.103Z,9.57
2023-03-10T17:26:08.296Z,8.57
2023-03-10T17:28:35.791Z,9.55
2023-03-10T17:31:05.953Z,8.45
2023-03-10T17:33:33.457Z,8.80
2023-03-10T17:36:04.427Z,8.80
2023-03-10T17:38:32.085Z,8.65
2023-03-10T17:41:00.932Z,9.35
2023-03-10T17:43:34.066Z,9.25
2023-03-10T17:46:02.809Z,8.68
2023-03-10T17:48:30.868Z,9.43
2023-03-10T17:50:58.570Z,7.97
2023-03-10T17:53:26.593Z,8.48
2023-03-10T17:55:54.615Z,8.13
2023-03-10T17:58:22.656Z,8.38
2023-03-10T18:00:51.514Z,8.65
2023-03-10T18:03:20.118Z,9.55
2023-03-10T18:05:48.076Z,9.40
2023-03-10T18:08:15.650Z,9.52
2023-03-10T18:10:43.282Z,9.18
2023-03-10T18:13:12.068Z,9.75
2023-03-10T18:15:39.691Z,10.50
2023-03-10T18:18:08.570Z,9.48
2023-03-10T18:20:36.313Z,9.50
2023-03-10T18:23:04.906Z,9.80
2023-03-10T18:25:32.436Z,9.55
2023-03-10T18:27:59.937Z,10.40
2023-03-10T18:30:27.526Z,10.45
2023-03-10T18:32:55.101Z,10.15
2023-03-10T18:35:23.924Z,10.80
2023-03-10T18:37:51.412Z,10.25
2023-03-10T18:40:18.897Z,11.75
2023-03-10T18:42:46.485Z,11.93
2023-03-10T18:45:13.985Z,11.30
2023-03-10T18:47:42.629Z,10.77
2023-03-10T18:50:11.945Z,11.05
2023-03-10T18:52:41.213Z,10.27
2023-03-10T18:55:10.065Z,11.40
2023-03-10T18:57:37.528Z,10.55
2023-03-10T19:00:07.382Z,11.27
2023-03-10T19:02:35.495Z,10.32
2023-03-10T19:05:04.973Z,11.50
2023-03-10T19:07:32.585Z,10.88
2023-03-10T19:10:01.439Z,10.90
2023-03-10T19:12:28.930Z,11.30
2023-03-10T19:14:56.464Z,10.90
2023-03-10T19:17:26.500Z,10.75
2023-03-10T19:19:54.384Z,10.20
2023-03-10T19:22:21.967Z,12.13
2023-03-10T19:24:49.532Z,10.45
2023-03-10T19:27:18.514Z,11.10
2023-03-10T19:29:46.082Z,10.68
2023-03-10T19:32:13.649Z,10.75
2023-03-10T19:34:41.170Z,10.90
2023-03-10T19:37:08.755Z,10.40
2023-03-10T19:39:36.285Z,11.38
2023-03-10T19:42:03.747Z,10.60
2023-03-10T19:44:33.082Z,10.75
2023-03-10T19:47:00.767Z,10.18
2023-03-10T19:49:28.664Z,11.07
2023-03-10T19:51:56.134Z,11.45
2023-03-10T19:54:23.662Z,10.65
2023-03-10T19:56:51.109Z,10.80
2023-03-10T19:59:18.593Z,10.98
2023-03-10T20:01:49.030Z,10.73
2023-03-10T20:04:16.669Z,10.63
2023-03-10T20:06:44.167Z,10.48
2023-03-10T20:09:11.731Z,9.57
2023-03-10T20:11:39.840Z,10.27
2023-03-10T20:14:07.373Z,9.25
2023-03-10T20:16:35.227Z,9.63
2023-03-10T20:19:04.132Z,9.50
2023-03-10T20:21:31.730Z,9.57
2023-03-10T20:23:59.253Z,9.02
2023-03-10T20:26:26.741Z,9.00
2023-03-10T20:28:54.312Z,8.90
2023-03-10T20:31:22.955Z,9.23
2023-03-10T20:33:50.810Z,8.45
2023-03-10T20:36:19.746Z,7.65
2023-03-10T20:38:47.886Z,8.77
2023-03-10T20:41:16.836Z,7.88
2023-03-10T20:43:44.853Z,8.10
2023-03-10T20:46:13.106Z,7.80
2023-03-10T20:48:40.727Z,7.68
2023-03-10T20:51:08.249Z,8.77
2023-03-10T20:53:37.245Z,7.90
2023-03-10T20:56:08.468Z,7.32
2023-03-10T20:58:35.991Z,8.40
2023-03-10T21:01:03.538Z,7.90
2023-03-10T21:03:31.910Z,8.43
2023-03-10T21:05:59.490Z,8.13
2023-03-10T21:08:27.038Z,8.05
2023-03-10T21:10:55.857Z,7.47
2023-03-10T21:13:23.403Z,8.00
2023-03-10T21:15:51.005Z,8.65
2023-03-10T21:18:18.579Z,8.02
2023-03-10T21:20:46.113Z,9.20
2023-03-10T21:23:13.633Z,8.68
2023-03-10T21:25:41.217Z,8.93
2023-03-10T21:28:10.266Z,8.85
2023-03-10T21:30:38.748Z,8.82
2023-03-10T21:33:06.314Z,9.00
2023-03-10T21:35:34.224Z,8.40
2023-03-10T21:38:01.849Z,7.95
2023-03-10T21:40:30.203Z,8.48
2023-03-10T21:42:57.717Z,7.93
2023-03-10T21:45:26.683Z,8.02
2023-03-10T21:47:54.184Z,8.65
2023-03-10T21:50:21.700Z,8.18
2023-03-10T21:52:49.276Z,8.05
2023-03-10T21:55:18.909Z,8.15
2023-03-10T21:57:46.364Z,8.10
2023-03-10T22:00:14.540Z,8.10
2023-03-10T22:02:43.664Z,9.40
2023-03-10T22:05:13.573Z,9.18
2023-03-10T22:07:41.925Z,8.93
2023-03-10T22:10:10.249Z,8.98
2023-03-10T22:12:37.718Z,9.20
2023-03-10T22:15:05.863Z,8.95
2023-03-10T22:17:33.417Z,9.25
2023-03-10T22:20:02.273Z,9.40
2023-03-10T22:22:29.802Z,9.00
2023-03-10T22:24:57.321Z,9.70
2023-03-10T22:27:24.874Z,9.30
2023-03-10T22:29:52.415Z,9.13
2023-03-10T22:32:19.921Z,10.82
2023-03-10T22:34:47.421Z,9.15
2023-03-10T22:37:16.306Z,8.35
2023-03-10T22:39:46.326Z,8.95
2023-03-10T22:42:14.102Z,8.25
2023-03-10T22:44:41.876Z,8.07
2023-03-10T22:47:09.366Z,8.73
2023-03-10T22:49:36.927Z,8.60
2023-03-10T22:52:06.990Z,8.05
2023-03-10T22:54:36.612Z,7.78
2023-03-10T22:57:04.411Z,7.32
2023-03-10T22:59:31.908Z,7.38
2023-03-10T23:01:59.455Z,7.78
2023-03-10T23:04:26.945Z,7.90
2023-03-10T23:06:54.449Z,8.10
2023-03-10T23:09:21.916Z,7.07
2023-03-10T23:11:50.800Z,7.63
2023-03-10T23:14:18.228Z,7.40
2023-03-10T23:16:45.750Z,7.15
2023-03-10T23:19:13.303Z,6.40
2023-03-10T23:21:40.825Z,7.50
2023-03-10T23:24:08.349Z,6.30
2023-03-10T23:26:37.402Z,6.78
2023-03-10T23:29:06.307Z,6.50
2023-03-10T23:31:33.933Z,7.05
2023-03-10T23:34:01.577Z,7.18
2023-03-10T23:36:29.133Z,7.10
2023-03-10T23:38:56.752Z,7.05
2023-03-10T23:41:24.569Z,7.03
2023-03-10T23:43:53.023Z,6.93
2023-03-10T23:46:22.130Z,7.10
2023-03-10T23:48:50.779Z,7.80
2023-03-10T23:51:18.591Z,7.68
2023-03-10T23:53:46.137Z,9.13
2023-03-10T23:56:13.709Z,8.43
2023-03-10T23:58:41.363Z,9.07
